KGTR/GTR METAR and TAF weather

Enter ICAO airport designator
Station Type Date Time Source
KGTR METAR 2022/06/27 17:56 UTC NOAA

KGTR 271756Z 34008KT 10SM FEW018 28/23 A3013 RMK AO2 SLP208 T02830233 10289 20233 58001


Station Type Date Time Source
KGTR Decoded METAR 2022/06/27 17:56 UTC NOAA

Columbus/West Point/Starkville, Golden Triangle Regional Airport, MS, United States (KGTR) 33-27N 088-35W
Jun 27, 2022 - 01:56 PM EDT / 2022.06.27 1756 UTC
Wind: from the NNW (340 degrees) at 9 MPH (8 KT):0
Visibility: 10 mile(s):0
Sky conditions: mostly clear
Temperature: 82.9 F (28.3 C)
Dew Point: 73.9 F (23.3 C)
Relative Humidity: 74%
Pressure (altimeter): 30.13 in. Hg (1020 hPa)
Pressure tendency: 0.00 inches (0.1 hPa) lower than three hours ago
ob: KGTR 271756Z 34008KT 10SM FEW018 28/23 A3013 RMK AO2 SLP208 T02830233 10289 20233 58001
cycle: 18

Station Type Date Time Source
KGTR TAF 2022/06/27 18:58 UTC NOAA

TAF KGTR 271758Z 2718/2818 01007KT P6SM SCT025 SCT050

Example: see airport list